createdAt,value
2018-10-21T00:01:04.093Z,18.00
2018-10-21T00:02:04.396Z,18.10
2018-10-21T00:03:04.719Z,19.90
2018-10-21T00:04:04.295Z,18.60
2018-10-21T00:05:25.875Z,19.20
2018-10-21T00:07:08.637Z,19.90
2018-10-21T00:08:30.377Z,19.90
2018-10-21T00:09:30.658Z,17.70
2018-10-21T00:10:31.047Z,16.30
2018-10-21T00:11:30.693Z,15.90
2018-10-21T00:12:31.173Z,16.10
2018-10-21T00:13:30.614Z,15.50
2018-10-21T00:14:52.368Z,17.10
2018-10-21T00:15:52.789Z,17.90
2018-10-21T00:16:53.178Z,18.70
2018-10-21T00:17:52.457Z,18.80
2018-10-21T00:18:52.982Z,18.80
2018-10-21T00:19:52.376Z,18.80
2018-10-21T00:21:34.636Z,18.70
2018-10-21T00:22:35.394Z,18.20
2018-10-21T00:23:34.965Z,17.60
2018-10-21T00:24:35.396Z,18.40
2018-10-21T00:25:34.850Z,18.70
2018-10-21T00:26:35.327Z,18.20
2018-10-21T00:27:35.628Z,17.80
2018-10-21T00:28:34.953Z,18.10
2018-10-21T00:29:56.579Z,19.30
2018-10-21T00:30:57.055Z,18.60
2018-10-21T00:31:56.770Z,18.60
2018-10-21T00:32:57.285Z,18.10
2018-10-21T00:33:56.645Z,17.20
2018-10-21T00:34:56.976Z,19.10
2018-10-21T00:35:57.291Z,17.60
2018-10-21T00:36:56.792Z,15.40
2018-10-21T00:38:18.496Z,17.40
2018-10-21T00:39:39.908Z,15.60
2018-10-21T00:41:24.127Z,14.60
2018-10-21T00:42:24.502Z,15.80
2018-10-21T00:43:25.115Z,15.80
2018-10-21T00:44:24.513Z,18.00
2018-10-21T00:46:07.159Z,18.90
2018-10-21T00:47:07.457Z,18.90
2018-10-21T00:48:07.601Z,19.70
2018-10-21T00:49:08.086Z,17.90
2018-10-21T00:50:07.702Z,17.50
2018-10-21T00:51:08.254Z,16.80
2018-10-21T00:52:07.754Z,18.10
2018-10-21T00:53:07.301Z,18.20
2018-10-21T00:54:29.822Z,18.70
2018-10-21T00:55:29.262Z,17.80
2018-10-21T00:56:29.796Z,18.70
2018-10-21T00:57:50.473Z,18.10
2018-10-21T00:59:12.457Z,17.60
2018-10-21T01:00:12.896Z,15.60
2018-10-21T01:01:49.595Z,15.00
2018-10-21T01:02:38.588Z,13.80
2018-10-21T01:03:37.827Z,13.90
2018-10-21T01:04:58.407Z,14.10
2018-10-21T01:05:58.602Z,14.60
2018-10-21T01:07:20.613Z,15.70
2018-10-21T01:08:21.009Z,14.10
2018-10-21T01:09:21.326Z,14.70
2018-10-21T01:10:20.680Z,15.90
2018-10-21T01:11:21.047Z,16.10
2018-10-21T01:12:20.677Z,16.40
2018-10-21T01:13:20.996Z,16.70
2018-10-21T01:14:42.519Z,16.00
2018-10-21T01:15:42.944Z,17.20
2018-10-21T01:17:03.453Z,18.00
2018-10-21T01:18:04.106Z,16.80
2018-10-21T01:19:24.596Z,16.50
2018-10-21T01:20:25.171Z,15.60
2018-10-21T01:21:25.648Z,17.10
2018-10-21T01:22:24.992Z,16.10
2018-10-21T01:23:25.409Z,16.00
2018-10-21T01:24:24.745Z,16.90
2018-10-21T01:25:25.207Z,16.70
2018-10-21T01:26:24.646Z,17.40
2018-10-21T01:27:24.789Z,16.60
2018-10-21T01:28:25.308Z,17.60
2018-10-21T01:29:24.893Z,16.80
2018-10-21T01:30:25.354Z,17.30
2018-10-21T01:31:24.629Z,17.40
2018-10-21T01:32:25.036Z,16.70
2018-10-21T01:33:25.516Z,17.40
2018-10-21T01:34:25.096Z,17.70
2018-10-21T01:35:25.443Z,16.20
2018-10-21T01:36:25.120Z,18.30
2018-10-21T01:37:24.932Z,17.70
2018-10-21T01:38:25.676Z,17.60
2018-10-21T01:39:25.098Z,17.80
2018-10-21T01:40:25.474Z,18.80
2018-10-21T01:41:25.029Z,17.30
2018-10-21T01:42:46.733Z,18.30
2018-10-21T01:43:47.062Z,18.90
2018-10-21T01:44:47.382Z,18.30
2018-10-21T01:45:46.967Z,18.10
2018-10-21T01:46:47.311Z,17.90
2018-10-21T01:48:09.027Z,17.60
2018-10-21T01:49:09.482Z,17.60
2018-10-21T01:50:09.104Z,18.70
2018-10-21T01:51:30.681Z,18.40
2018-10-21T01:52:52.354Z,18.60
2018-10-21T01:53:52.877Z,17.40
2018-10-21T01:54:53.327Z,16.90
2018-10-21T01:55:52.967Z,17.30
2018-10-21T01:56:52.519Z,18.10
2018-10-21T01:58:14.304Z,17.20
2018-10-21T01:59:57.250Z,17.70
2018-10-21T02:00:57.773Z,19.60
2018-10-21T02:01:57.131Z,18.10
2018-10-21T02:02:57.557Z,18.40
2018-10-21T02:03:58.082Z,18.70
2018-10-21T02:05:29.884Z,18.40
2018-10-21T02:06:30.557Z,18.20
2018-10-21T02:07:30.128Z,18.10
2018-10-21T02:08:30.549Z,18.40
2018-10-21T02:10:35.483Z,17.90
2018-10-21T02:11:35.008Z,18.40
2018-10-21T02:12:35.574Z,19.40
2018-10-21T02:13:35.178Z,18.90
2018-10-21T02:14:35.551Z,18.00
2018-10-21T02:15:35.118Z,18.80
2018-10-21T02:16:35.673Z,18.60
2018-10-21T02:17:35.000Z,18.20
2018-10-21T02:18:35.410Z,18.10
2018-10-21T02:19:34.946Z,16.60
2018-10-21T02:20:35.338Z,17.20
2018-10-21T02:21:34.769Z,16.80
2018-10-21T02:22:47.036Z,15.80
2018-10-21T02:24:08.508Z,15.40
2018-10-21T02:25:51.383Z,16.00
2018-10-21T02:26:51.671Z,16.90
2018-10-21T02:27:52.049Z,16.90
2018-10-21T02:28:51.561Z,17.10
2018-10-21T02:29:51.918Z,17.80
2018-10-21T02:30:52.281Z,17.40
2018-10-21T02:31:51.449Z,17.90
2018-10-21T02:32:52.024Z,17.50
2018-10-21T02:33:51.638Z,19.00
2018-10-21T02:34:52.011Z,19.10
2018-10-21T02:36:13.407Z,19.90
2018-10-21T02:37:13.551Z,19.70
2018-10-21T02:38:14.065Z,19.40
2018-10-21T02:39:13.503Z,19.30
2018-10-21T02:40:56.325Z,19.80
2018-10-21T02:41:57.452Z,20.50
2018-10-21T02:42:56.630Z,19.50
2018-10-21T02:44:18.083Z,19.80
2018-10-21T02:45:18.543Z,21.30
2018-10-21T02:46:18.837Z,19.40
2018-10-21T02:47:39.345Z,19.50
2018-10-21T02:49:00.519Z,20.10
2018-10-21T02:50:00.865Z,20.40
2018-10-21T02:51:01.161Z,19.50
2018-10-21T02:52:00.711Z,18.90
2018-10-21T02:53:01.325Z,19.40
2018-10-21T02:54:00.827Z,20.20
2018-10-21T02:55:22.449Z,18.40
2018-10-21T02:56:22.940Z,19.10
2018-10-21T02:57:22.439Z,19.80
2018-10-21T02:58:22.906Z,19.70
2018-10-21T02:59:43.651Z,19.60
2018-10-21T03:01:26.204Z,17.90
2018-10-21T03:02:26.834Z,17.30
2018-10-21T03:03:48.258Z,16.20
2018-10-21T03:04:48.680Z,17.40
2018-10-21T03:05:48.952Z,18.50
2018-10-21T03:06:48.655Z,17.50
2018-10-21T03:07:49.008Z,18.90
2018-10-21T03:08:48.190Z,19.50
2018-10-21T03:09:48.506Z,19.70
2018-10-21T03:10:49.192Z,20.80
2018-10-21T03:11:48.723Z,19.70
2018-10-21T03:12:49.043Z,19.20
2018-10-21T03:13:48.488Z,19.70
2018-10-21T03:14:48.946Z,20.80
2018-10-21T03:15:48.349Z,20.10
2018-10-21T03:16:48.745Z,19.70
2018-10-21T03:17:48.340Z,19.50
2018-10-21T03:18:48.515Z,20.10
2018-10-21T03:19:48.794Z,19.50
2018-10-21T03:20:48.886Z,19.70
2018-10-21T03:21:48.289Z,21.00
2018-10-21T03:22:18.265Z,21.00
2018-10-21T03:23:18.666Z,20.40
2018-10-21T03:24:19.220Z,21.30
2018-10-21T03:25:18.842Z,20.50
2018-10-21T03:26:18.371Z,22.80
2018-10-21T03:27:18.980Z,21.50
2018-10-21T03:28:18.554Z,20.70
2018-10-21T03:29:40.231Z,21.00
2018-10-21T03:30:40.663Z,21.80
2018-10-21T03:31:41.004Z,21.20
2018-10-21T03:32:40.566Z,20.10
2018-10-21T03:33:41.202Z,21.10
2018-10-21T03:34:40.999Z,21.20
2018-10-21T03:36:01.714Z,20.30
2018-10-21T03:37:02.232Z,20.20
2018-10-21T03:38:01.816Z,19.80
2018-10-21T03:39:02.420Z,20.90
2018-10-21T03:40:01.820Z,21.00
2018-10-21T03:41:23.210Z,20.60
2018-10-21T03:42:23.914Z,20.60
2018-10-21T03:43:23.346Z,21.10
2018-10-21T03:44:44.907Z,21.00
2018-10-21T03:46:06.236Z,20.00
2018-10-21T03:47:06.574Z,20.00
2018-10-21T03:48:06.834Z,19.90
2018-10-21T03:49:06.268Z,21.50
2018-10-21T03:50:06.749Z,23.50
2018-10-21T03:51:07.181Z,23.60
2018-10-21T03:52:06.605Z,25.20
2018-10-21T03:53:51.162Z,25.80
2018-10-21T03:54:51.418Z,26.40
2018-10-21T03:55:51.668Z,26.20
2018-10-21T03:56:52.131Z,26.50
2018-10-21T03:57:51.315Z,25.20
2018-10-21T03:58:51.745Z,25.10
2018-10-21T04:00:13.100Z,27.80
2018-10-21T04:01:34.514Z,26.30
2018-10-21T04:02:34.734Z,24.70
2018-10-21T04:03:56.161Z,25.00
2018-10-21T04:04:56.391Z,26.30
2018-10-21T04:05:56.882Z,26.90
2018-10-21T04:06:56.108Z,27.00
2018-10-21T04:07:56.189Z,26.30
2018-10-21T04:08:56.219Z,26.60
2018-10-21T04:09:56.564Z,26.10
2018-10-21T04:10:56.871Z,26.90
2018-10-21T04:12:17.187Z,29.30
2018-10-21T04:13:17.541Z,29.90
2018-10-21T04:14:17.706Z,29.90
2018-10-21T04:15:18.011Z,28.70
2018-10-21T04:16:17.510Z,28.60
2018-10-21T04:17:17.254Z,28.10
2018-10-21T04:18:18.066Z,27.90
2018-10-21T04:19:17.497Z,28.10
2018-10-21T04:20:17.730Z,29.10
2018-10-21T04:21:17.255Z,30.30
2018-10-21T04:22:17.648Z,30.40
2018-10-21T04:23:17.299Z,32.10
2018-10-21T04:24:17.867Z,29.70
2018-10-21T04:25:38.351Z,30.30
2018-10-21T04:26:38.794Z,30.40
2018-10-21T04:28:21.196Z,30.00
2018-10-21T04:29:21.583Z,29.70
2018-10-21T04:30:42.909Z,29.60
2018-10-21T04:31:43.381Z,30.40
2018-10-21T04:32:43.514Z,29.00
2018-10-21T04:34:04.275Z,29.70
2018-10-21T04:35:25.476Z,30.10
2018-10-21T04:36:25.875Z,31.10
2018-10-21T04:37:26.485Z,32.10
2018-10-21T04:38:46.951Z,31.10
2018-10-21T04:39:47.436Z,31.70
2018-10-21T04:40:47.508Z,29.40
2018-10-21T04:41:47.783Z,30.80
2018-10-21T04:42:47.186Z,29.40
2018-10-21T04:43:47.346Z,30.20
2018-10-21T04:44:47.600Z,30.10
2018-10-21T04:45:47.049Z,29.50
2018-10-21T04:46:47.293Z,29.50
2018-10-21T04:47:47.027Z,29.20
2018-10-21T04:48:47.485Z,29.60
2018-10-21T04:49:47.027Z,29.80
2018-10-21T04:50:47.307Z,30.80
2018-10-21T04:51:47.837Z,31.20
2018-10-21T04:52:47.106Z,31.60
2018-10-21T04:53:47.449Z,32.40
2018-10-21T04:54:46.819Z,31.10
2018-10-21T04:55:47.141Z,29.20
2018-10-21T04:56:47.548Z,30.30
2018-10-21T04:57:47.127Z,32.00
2018-10-21T04:58:47.560Z,31.00
2018-10-21T04:59:46.657Z,29.50
2018-10-21T05:00:47.268Z,29.60
2018-10-21T05:01:47.734Z,31.30
2018-10-21T05:02:47.088Z,30.60
2018-10-21T05:03:47.467Z,29.80
2018-10-21T05:04:46.905Z,28.90
2018-10-21T05:05:47.477Z,30.00
2018-10-21T05:06:46.645Z,29.90
2018-10-21T05:07:47.143Z,28.40
2018-10-21T05:08:47.400Z,30.10
2018-10-21T05:09:47.561Z,29.40
2018-10-21T05:10:46.951Z,29.40
2018-10-21T05:11:47.404Z,29.00
2018-10-21T05:12:47.755Z,29.70
2018-10-21T05:13:46.786Z,28.50
2018-10-21T05:14:47.097Z,28.90
2018-10-21T05:15:47.384Z,30.20
2018-10-21T05:16:47.845Z,29.10
2018-10-21T05:17:47.214Z,29.20
2018-10-21T05:18:47.558Z,29.30
2018-10-21T05:19:46.941Z,28.40
2018-10-21T05:20:47.263Z,27.10
2018-10-21T05:21:47.684Z,29.80
2018-10-21T05:22:46.728Z,29.60
2018-10-21T05:23:47.321Z,28.70
2018-10-21T05:24:47.781Z,28.10
2018-10-21T05:25:47.169Z,29.10
2018-10-21T05:26:47.421Z,29.80
2018-10-21T05:27:46.633Z,29.50
2018-10-21T05:28:46.976Z,29.00
2018-10-21T05:29:47.346Z,27.30
2018-10-21T05:30:46.901Z,29.20
2018-10-21T05:31:47.217Z,29.00
2018-10-21T05:32:47.750Z,28.60
2018-10-21T05:34:08.398Z,29.80
2018-10-21T05:35:08.712Z,27.20
2018-10-21T05:36:09.062Z,25.90
2018-10-21T05:37:08.411Z,23.20
2018-10-21T05:38:08.821Z,21.50
2018-10-21T05:39:31.030Z,20.30
2018-10-21T05:40:31.359Z,20.80
2018-10-21T05:41:52.968Z,21.80
2018-10-21T05:42:53.465Z,21.50
2018-10-21T05:44:14.688Z,21.60
2018-10-21T05:45:14.992Z,22.00
2018-10-21T05:46:15.433Z,21.20
2018-10-21T05:47:15.173Z,21.40
2018-10-21T05:48:15.832Z,20.90
2018-10-21T05:49:15.268Z,22.10
2018-10-21T05:50:36.971Z,21.60
2018-10-21T05:51:37.622Z,21.70
2018-10-21T05:52:37.081Z,22.40
2018-10-21T05:53:37.389Z,22.50
2018-10-21T05:54:59.106Z,23.50
2018-10-21T05:55:59.432Z,22.90
2018-10-21T05:56:59.820Z,22.70
2018-10-21T05:57:59.181Z,22.60
2018-10-21T05:59:20.774Z,22.40
2018-10-21T06:00:21.205Z,22.10
2018-10-21T06:01:21.700Z,23.30
2018-10-21T06:02:21.181Z,22.70
2018-10-21T06:03:21.620Z,23.10
2018-10-21T06:04:21.030Z,22.70
2018-10-21T06:05:21.293Z,23.50
2018-10-21T06:06:21.651Z,23.20
2018-10-21T06:07:21.188Z,25.30
2018-10-21T06:08:21.532Z,23.70
2018-10-21T06:09:42.329Z,23.10
2018-10-21T06:11:03.806Z,22.80
2018-10-21T06:12:04.349Z,23.90
2018-10-21T06:13:25.075Z,23.40
2018-10-21T06:14:25.342Z,23.10
2018-10-21T06:15:25.777Z,24.80
2018-10-21T06:16:25.483Z,24.50
2018-10-21T06:17:26.073Z,24.30
2018-10-21T06:18:25.657Z,24.50
2018-10-21T06:19:25.291Z,24.60
2018-10-21T06:20:25.942Z,23.50
2018-10-21T06:21:25.527Z,24.30
2018-10-21T06:22:26.141Z,24.40
2018-10-21T06:23:46.843Z,24.20
2018-10-21T06:24:47.364Z,24.00
2018-10-21T06:25:46.851Z,23.80
2018-10-21T06:26:47.483Z,24.20
2018-10-21T06:27:47.010Z,24.30
2018-10-21T06:28:47.591Z,24.00
2018-10-21T06:29:46.940Z,24.90
2018-10-21T06:31:08.964Z,23.90
2018-10-21T06:32:09.565Z,25.90
2018-10-21T06:33:30.490Z,25.10
2018-10-21T06:34:31.047Z,24.50
2018-10-21T06:35:30.752Z,24.10
2018-10-21T06:36:30.945Z,25.20
2018-10-21T06:37:30.638Z,25.00
2018-10-21T06:38:31.305Z,26.00
2018-10-21T06:39:30.925Z,27.10
2018-10-21T06:40:30.432Z,26.50
2018-10-21T06:41:31.135Z,25.40
2018-10-21T06:42:30.658Z,25.20
2018-10-21T06:43:30.211Z,25.10
2018-10-21T06:44:52.401Z,25.40
2018-10-21T06:45:53.112Z,24.30
2018-10-21T06:46:52.620Z,27.20
2018-10-21T06:47:53.112Z,25.70
2018-10-21T06:49:14.093Z,25.00
2018-10-21T06:50:14.760Z,25.00
2018-10-21T06:51:14.613Z,25.80
2018-10-21T06:52:14.336Z,25.00
2018-10-21T06:53:14.865Z,25.60
2018-10-21T06:54:14.490Z,25.90
2018-10-21T06:55:14.977Z,25.00
2018-10-21T06:56:14.562Z,25.00
2018-10-21T06:57:14.480Z,25.40
2018-10-21T06:58:14.252Z,25.00
2018-10-21T06:59:15.029Z,24.20
2018-10-21T07:00:36.021Z,24.50
2018-10-21T07:01:36.402Z,25.30
2018-10-21T07:02:36.875Z,24.50
2018-10-21T07:03:36.366Z,26.20
2018-10-21T07:04:36.198Z,26.00
2018-10-21T07:05:35.813Z,25.90
2018-10-21T07:06:36.433Z,25.60
2018-10-21T07:08:42.488Z,25.30
2018-10-21T07:09:43.130Z,26.50
2018-10-21T07:10:44.918Z,25.00
2018-10-21T07:11:42.661Z,24.70
2018-10-21T07:12:43.323Z,25.60
2018-10-21T07:13:42.926Z,26.60
2018-10-21T07:14:42.741Z,25.20
2018-10-21T07:15:43.564Z,26.00
2018-10-21T07:16:43.344Z,25.30
2018-10-21T07:17:43.272Z,25.70
2018-10-21T07:18:42.894Z,26.40
2018-10-21T07:19:42.474Z,25.40
2018-10-21T07:20:43.244Z,24.90
2018-10-21T07:21:42.673Z,25.10
2018-10-21T07:22:43.452Z,24.40
2018-10-21T07:23:43.247Z,25.00
2018-10-21T07:24:42.918Z,25.70
2018-10-21T07:25:43.287Z,24.80
2018-10-21T07:26:42.865Z,25.70
2018-10-21T07:27:42.641Z,24.50
2018-10-21T07:28:42.456Z,26.00
2018-10-21T07:30:04.538Z,26.50
2018-10-21T07:31:27.193Z,25.40
2018-10-21T07:32:26.946Z,23.80
2018-10-21T07:33:27.486Z,24.30
2018-10-21T07:34:27.052Z,24.00
2018-10-21T07:35:49.318Z,24.90
2018-10-21T07:36:50.174Z,24.40
2018-10-21T07:37:49.815Z,25.40
2018-10-21T07:38:49.328Z,25.10
2018-10-21T07:39:49.980Z,24.60
2018-10-21T07:40:49.617Z,24.30
2018-10-21T07:42:10.889Z,24.70
2018-10-21T07:43:11.608Z,24.50
2018-10-21T07:44:11.400Z,24.40
2018-10-21T07:45:59.403Z,25.10
2018-10-21T07:47:00.175Z,24.00
2018-10-21T07:47:59.685Z,23.90
2018-10-21T07:48:59.420Z,24.90
2018-10-21T07:50:00.187Z,24.00
2018-10-21T07:50:59.955Z,22.80
2018-10-21T07:51:59.869Z,23.50
2018-10-21T07:52:59.631Z,23.70
2018-10-21T07:53:59.448Z,24.90
2018-10-21T07:55:00.061Z,22.60
2018-10-21T07:56:21.332Z,22.90
2018-10-21T07:57:21.994Z,22.90
2018-10-21T07:58:21.734Z,23.90
2018-10-21T07:59:21.499Z,24.50
2018-10-21T08:00:22.200Z,23.40
2018-10-21T08:01:22.061Z,23.10
2018-10-21T08:02:21.972Z,22.70
2018-10-21T08:03:21.730Z,24.30
2018-10-21T08:04:21.451Z,23.90
2018-10-21T08:05:43.595Z,22.60
2018-10-21T08:07:05.310Z,23.50
2018-10-21T08:08:05.811Z,23.90
2018-10-21T08:09:05.679Z,24.40
2018-10-21T08:10:05.321Z,24.10
2018-10-21T08:11:05.718Z,22.50
2018-10-21T08:12:05.347Z,23.90
2018-10-21T08:13:06.305Z,23.80
2018-10-21T08:14:05.948Z,24.70
2018-10-21T08:15:05.788Z,24.60
2018-10-21T08:16:05.282Z,23.40
2018-10-21T08:17:06.056Z,23.90
2018-10-21T08:18:27.216Z,22.90
2018-10-21T08:19:28.058Z,23.40
2018-10-21T08:20:27.944Z,24.70
2018-10-21T08:21:27.532Z,23.50
2018-10-21T08:22:27.252Z,24.60
2018-10-21T08:23:27.812Z,25.30
2018-10-21T08:24:27.787Z,24.30
2018-10-21T08:25:27.444Z,24.20
2018-10-21T08:26:28.191Z,24.70
2018-10-21T08:27:27.772Z,25.50
2018-10-21T08:28:49.239Z,25.40
2018-10-21T08:29:48.820Z,24.70
2018-10-21T08:30:49.593Z,25.10
2018-10-21T08:31:50.252Z,25.20
2018-10-21T08:32:48.973Z,25.50
2018-10-21T08:33:50.001Z,26.70
2018-10-21T08:34:49.829Z,26.10
2018-10-21T08:35:49.570Z,24.60
2018-10-21T08:36:49.495Z,25.50
2018-10-21T08:37:49.707Z,25.10
2018-10-21T08:38:49.331Z,25.70
2018-10-21T08:39:49.040Z,25.20
2018-10-21T08:40:50.511Z,25.80
2018-10-21T08:41:49.178Z,27.10
2018-10-21T08:42:49.705Z,24.90
2018-10-21T08:43:49.203Z,26.80
2018-10-21T08:44:49.737Z,25.80
2018-10-21T08:45:50.543Z,25.80
2018-10-21T08:46:49.804Z,24.90
2018-10-21T08:47:50.629Z,26.30
2018-10-21T08:48:49.427Z,26.60
2018-10-21T08:50:13.011Z,26.60
2018-10-21T08:51:14.156Z,26.00
2018-10-21T08:52:13.743Z,26.30
2018-10-21T08:53:37.049Z,26.40
2018-10-21T08:54:35.760Z,26.80
2018-10-21T08:55:35.676Z,26.10
2018-10-21T08:56:35.356Z,26.80
2018-10-21T08:57:35.221Z,25.90
2018-10-21T08:58:35.141Z,25.80
2018-10-21T08:59:35.753Z,26.80
2018-10-21T09:00:35.644Z,27.00
2018-10-21T09:01:35.813Z,27.10
2018-10-21T09:02:35.709Z,26.30
2018-10-21T09:03:35.532Z,25.30
2018-10-21T09:04:35.378Z,26.10
2018-10-21T09:05:35.008Z,26.80
2018-10-21T09:06:35.937Z,28.00
2018-10-21T09:07:57.627Z,27.40
2018-10-21T09:08:58.197Z,25.80
2018-10-21T09:09:58.239Z,27.80
2018-10-21T09:10:58.114Z,26.80
2018-10-21T09:11:58.089Z,27.90
2018-10-21T09:12:57.868Z,27.30
2018-10-21T09:13:57.651Z,27.90
2018-10-21T09:14:58.496Z,26.90
2018-10-21T09:15:58.352Z,27.40
2018-10-21T09:16:58.051Z,27.10
2018-10-21T09:17:57.934Z,27.60
2018-10-21T09:18:57.797Z,27.60
2018-10-21T09:19:58.469Z,26.60
2018-10-21T09:20:58.344Z,27.80
2018-10-21T09:21:57.900Z,27.70
2018-10-21T09:22:57.689Z,26.00
2018-10-21T09:23:57.599Z,27.50
2018-10-21T09:24:57.639Z,27.90
2018-10-21T09:25:58.430Z,26.90
2018-10-21T09:27:21.995Z,27.50
2018-10-21T09:28:22.014Z,26.30
2018-10-21T09:29:22.696Z,26.40
2018-10-21T09:30:22.727Z,27.10
2018-10-21T09:31:44.073Z,26.10
2018-10-21T09:32:44.770Z,26.80
2018-10-21T09:33:44.335Z,26.90
2018-10-21T09:34:45.917Z,28.10
2018-10-21T09:35:45.417Z,31.60
2018-10-21T09:37:10.540Z,26.70
2018-10-21T09:38:11.377Z,26.10
2018-10-21T09:39:11.012Z,26.60
2018-10-21T09:40:10.046Z,26.20
2018-10-21T09:41:31.595Z,30.70
2018-10-21T09:42:31.619Z,28.60
2018-10-21T09:43:32.715Z,27.10
2018-10-21T09:44:31.594Z,26.80
2018-10-21T09:45:32.423Z,26.90
2018-10-21T09:46:32.038Z,26.20
2018-10-21T09:47:31.825Z,27.20
2018-10-21T09:48:31.876Z,26.30
2018-10-21T09:49:31.695Z,27.00
2018-10-21T09:50:31.688Z,28.30
2018-10-21T09:51:31.455Z,26.30
2018-10-21T09:52:32.289Z,26.50
2018-10-21T09:53:32.123Z,28.00
2018-10-21T09:54:32.095Z,28.00
2018-10-21T09:55:32.107Z,28.70
2018-10-21T09:56:31.791Z,26.60
2018-10-21T09:57:31.865Z,27.00
2018-10-21T09:58:31.880Z,26.90
2018-10-21T09:59:31.623Z,27.40
2018-10-21T10:00:31.657Z,27.00
2018-10-21T10:01:54.193Z,27.50
2018-10-21T10:02:55.007Z,26.70
2018-10-21T10:03:55.088Z,27.80
2018-10-21T10:05:17.314Z,26.60
2018-10-21T10:06:17.177Z,26.50
2018-10-21T10:07:40.857Z,27.00
2018-10-21T10:08:40.877Z,27.30
2018-10-21T10:09:41.729Z,29.50
2018-10-21T10:11:05.154Z,28.90
2018-10-21T10:12:05.095Z,27.70
2018-10-21T10:13:05.974Z,27.40
2018-10-21T10:14:05.832Z,27.50
2018-10-21T10:15:05.768Z,27.10
2018-10-21T10:16:05.946Z,27.50
2018-10-21T10:17:05.984Z,26.60
2018-10-21T10:18:05.887Z,26.40
2018-10-21T10:19:05.881Z,27.40
2018-10-21T10:20:27.562Z,26.80
2018-10-21T10:21:28.300Z,26.20
2018-10-21T10:22:28.065Z,26.70
2018-10-21T10:23:27.943Z,25.90
2018-10-21T10:24:27.763Z,28.20
2018-10-21T10:25:28.371Z,25.20
2018-10-21T10:26:28.368Z,26.60
2018-10-21T10:27:28.546Z,27.60
2018-10-21T10:28:28.400Z,25.20
2018-10-21T10:29:50.457Z,27.10
2018-10-21T10:30:50.151Z,26.70
2018-10-21T10:31:50.115Z,25.40
2018-10-21T10:32:49.913Z,26.70
2018-10-21T10:33:50.655Z,26.70
2018-10-21T10:34:50.343Z,27.00
2018-10-21T10:35:49.966Z,24.90
2018-10-21T10:37:33.350Z,24.90
2018-10-21T10:38:56.797Z,25.50
2018-10-21T10:39:57.683Z,25.50
2018-10-21T10:40:57.733Z,24.50
2018-10-21T10:41:58.088Z,25.60
2018-10-21T10:42:57.114Z,23.70
2018-10-21T10:43:56.833Z,23.30
2018-10-21T10:44:57.755Z,23.40
2018-10-21T10:45:58.051Z,23.70
2018-10-21T10:46:56.883Z,24.30
2018-10-21T10:47:57.712Z,23.90
2018-10-21T10:48:57.820Z,23.40
2018-10-21T10:49:57.639Z,23.40
2018-10-21T10:50:57.539Z,24.80
2018-10-21T10:51:57.772Z,23.70
2018-10-21T10:53:41.451Z,24.00
2018-10-21T10:54:41.800Z,24.00
2018-10-21T10:55:41.833Z,24.00
2018-10-21T10:56:41.679Z,23.30
2018-10-21T10:57:41.742Z,24.30
2018-10-21T10:58:41.880Z,25.20
2018-10-21T10:59:41.740Z,22.80
2018-10-21T11:00:41.797Z,24.00
2018-10-21T11:01:41.655Z,22.70
2018-10-21T11:02:41.519Z,22.90
2018-10-21T11:03:41.384Z,21.60
2018-10-21T11:04:41.440Z,20.60
2018-10-21T11:05:41.391Z,21.50
2018-10-21T11:06:41.368Z,22.70
2018-10-21T11:07:41.304Z,21.40
2018-10-21T11:08:41.454Z,19.20
2018-10-21T11:09:41.365Z,21.80
2018-10-21T11:10:41.170Z,22.00
2018-10-21T11:11:41.022Z,24.90
2018-10-21T11:12:41.737Z,21.90
2018-10-21T11:13:41.685Z,23.30
2018-10-21T11:14:42.683Z,21.30
2018-10-21T11:16:05.396Z,22.50
2018-10-21T11:17:05.512Z,22.50
2018-10-21T11:18:06.308Z,21.40
2018-10-21T11:19:06.545Z,21.00
2018-10-21T11:20:28.889Z,20.90
2018-10-21T11:21:29.850Z,21.60
2018-10-21T11:22:29.910Z,22.20
2018-10-21T11:23:51.305Z,19.80
2018-10-21T11:25:16.214Z,19.70
2018-10-21T11:26:17.016Z,17.60
2018-10-21T11:27:17.269Z,18.90
2018-10-21T11:28:17.119Z,19.80
2018-10-21T11:29:16.378Z,18.50
2018-10-21T11:30:16.152Z,18.70
2018-10-21T11:31:16.440Z,19.40
2018-10-21T11:32:16.678Z,18.70
2018-10-21T11:33:16.757Z,19.20
2018-10-21T11:34:40.373Z,18.50
2018-10-21T11:35:41.214Z,19.00
2018-10-21T11:36:41.202Z,18.90
2018-10-21T11:37:41.094Z,17.70
2018-10-21T11:38:41.301Z,18.20
2018-10-21T11:39:41.240Z,19.50
2018-10-21T11:41:50.154Z,19.90
2018-10-21T11:43:12.937Z,19.00
2018-10-21T11:44:12.882Z,18.10
2018-10-21T11:45:13.535Z,17.80
2018-10-21T11:46:13.415Z,19.70
2018-10-21T11:47:13.424Z,19.10
2018-10-21T11:48:13.368Z,17.90
2018-10-21T11:49:13.472Z,18.70
2018-10-21T11:50:13.526Z,18.10
2018-10-21T11:51:13.545Z,17.80
2018-10-21T11:52:13.768Z,18.30
2018-10-21T11:53:14.184Z,19.60
2018-10-21T11:54:12.897Z,17.70
2018-10-21T11:55:12.828Z,18.50
2018-10-21T11:56:12.797Z,18.50
2018-10-21T11:57:59.284Z,18.60
2018-10-21T11:59:00.143Z,17.70
2018-10-21T12:00:21.736Z,17.80
2018-10-21T12:01:22.658Z,18.20
2018-10-21T12:02:22.854Z,18.50
2018-10-21T12:03:22.547Z,17.70
2018-10-21T12:04:22.624Z,18.00
2018-10-21T12:05:22.680Z,18.20
2018-10-21T12:06:22.467Z,18.00
2018-10-21T12:07:22.396Z,18.10
2018-10-21T12:08:22.400Z,17.00
2018-10-21T12:09:22.128Z,18.00
2018-10-21T12:10:22.284Z,17.40
2018-10-21T12:11:22.067Z,18.10
2018-10-21T12:12:22.137Z,17.20
2018-10-21T12:13:22.192Z,18.10
2018-10-21T12:14:21.930Z,17.60
2018-10-21T12:15:21.628Z,18.30
2018-10-21T12:16:22.667Z,17.80
2018-10-21T12:17:22.599Z,17.60
2018-10-21T12:18:18.378Z,17.10
2018-10-21T12:19:20.104Z,16.50
2018-10-21T12:20:19.259Z,17.30
2018-10-21T12:21:19.036Z,16.70
2018-10-21T12:22:42.810Z,17.00
2018-10-21T12:23:43.875Z,16.60
2018-10-21T12:24:42.927Z,16.20
2018-10-21T12:25:43.073Z,15.70
2018-10-21T12:26:42.695Z,15.80
2018-10-21T12:27:44.103Z,16.70
2018-10-21T12:28:42.894Z,16.80
2018-10-21T12:29:43.092Z,17.10
2018-10-21T12:31:29.531Z,16.30
2018-10-21T12:32:29.199Z,16.10
2018-10-21T12:33:29.928Z,15.40
2018-10-21T12:34:29.865Z,15.80
2018-10-21T12:35:29.880Z,15.60
2018-10-21T12:36:30.076Z,15.20
2018-10-21T12:37:29.901Z,15.00
2018-10-21T12:38:29.847Z,14.60
2018-10-21T12:39:29.671Z,14.60
2018-10-21T12:40:29.685Z,15.00
2018-10-21T12:41:29.765Z,15.60
2018-10-21T12:42:29.986Z,15.70
2018-10-21T12:43:29.802Z,15.80
2018-10-21T12:44:51.878Z,15.50
2018-10-21T12:45:52.063Z,14.90
2018-10-21T12:46:52.165Z,14.00
2018-10-21T12:47:52.673Z,14.20
2018-10-21T12:48:51.883Z,14.30
2018-10-21T12:49:51.796Z,14.50
2018-10-21T12:50:51.733Z,15.50
2018-10-21T12:51:51.918Z,13.70
2018-10-21T12:52:51.632Z,13.40
2018-10-21T12:53:51.542Z,13.80
2018-10-21T12:54:51.224Z,13.30
2018-10-21T12:55:52.030Z,12.80
2018-10-21T12:56:52.019Z,12.00
2018-10-21T12:58:13.762Z,10.80
2018-10-21T12:59:13.770Z,10.30
2018-10-21T13:00:13.607Z,9.60
2018-10-21T13:01:13.736Z,9.60
2018-10-21T13:02:14.093Z,8.10
2018-10-21T13:03:14.134Z,7.90
2018-10-21T13:04:13.989Z,7.10
2018-10-21T13:05:35.803Z,7.50
2018-10-21T13:06:36.907Z,6.90
2018-10-21T13:07:35.671Z,6.20
2018-10-21T13:08:36.688Z,6.60
2018-10-21T13:09:35.686Z,6.70
2018-10-21T13:10:35.369Z,6.00
2018-10-21T13:11:36.010Z,6.20
2018-10-21T13:12:36.458Z,5.90
2018-10-21T13:13:59.891Z,5.40
2018-10-21T13:14:59.621Z,5.70
2018-10-21T13:16:20.763Z,5.40
2018-10-21T13:17:21.591Z,5.00
2018-10-21T13:18:21.565Z,4.90
2018-10-21T13:19:21.537Z,4.90
2018-10-21T13:20:21.410Z,5.10
2018-10-21T13:21:42.605Z,4.10
2018-10-21T13:22:43.684Z,4.10
2018-10-21T13:23:43.630Z,4.60
2018-10-21T13:24:43.453Z,5.40
2018-10-21T13:25:43.305Z,6.30
2018-10-21T13:26:43.255Z,5.50
2018-10-21T13:27:43.251Z,5.80
2018-10-21T13:28:42.900Z,5.60
2018-10-21T13:29:42.921Z,5.30
2018-10-21T13:30:43.227Z,6.30
2018-10-21T13:32:31.350Z,6.60
2018-10-21T13:33:31.583Z,6.40
2018-10-21T13:34:31.701Z,5.90
2018-10-21T13:35:31.650Z,6.50
2018-10-21T13:36:55.700Z,5.80
2018-10-21T13:37:56.696Z,6.10
2018-10-21T13:38:56.565Z,6.20
2018-10-21T13:40:19.920Z,5.70
2018-10-21T13:41:44.471Z,5.50
2018-10-21T13:42:45.327Z,5.20
2018-10-21T13:43:45.096Z,5.30
2018-10-21T13:44:44.984Z,5.70
2018-10-21T13:45:44.753Z,5.10
2018-10-21T13:46:44.557Z,5.30